Flight Track Log - Related Links

Times and Time Zones

All times are in EDT time to prevent confusion due to time zone crossing. See the TGW436 flight status page for this flight to view local times or setup timezone preferences in your user account.

Time Position Orientation Groundspeed Altitude Reporting Facility
EDT Latitude Longitude Course Direction KTS MPH feet Rate Location/Type
Fri 07:24:11 PM -37.6925 144.8423 168° South 169 194 1,700  Level Aus ATC (RADAR)
Fri 07:24:22 PM -37.6990 144.8440 171° South 146 168 1,900 1,385 Climbing FlightAware ADS-B
Fri 07:24:37 PM -37.7100 144.8460 172° South 146 168 2,300 1,647 Climbing FlightAware ADS-B
Fri 07:25:13 PM -37.7350 144.8500 172° South 165 190 3,300 2,462 Climbing FlightAware ADS-B
Fri 07:25:16 PM -37.7394 144.8494 172° South 159 183 3,900 900 Climbing Aus ATC (RADAR)
Fri 07:25:33 PM -37.7490 144.8380 214° Southwest 195 224 3,600 -222 Descending FlightAware ADS-B
Fri 07:25:43 PM -37.7510 144.8250 259° West 212 244 3,800 1,171 Climbing FlightAware ADS-B
Fri 07:26:14 PM -37.7460 144.7840 279° West 246 283 4,400 2,000 Climbing FlightAware ADS-B
Fri 07:26:43 PM -37.7380 144.7400 283° West 268 308 5,800 3,356 Climbing FlightAware ADS-B
Fri 07:27:13 PM -37.7310 144.6930 281° West 265 305 7,700 3,273 Climbing FlightAware ADS-B
Fri 07:27:38 PM -37.7260 144.6550 279° West 273 314 8,800 2,314 Climbing FlightAware ADS-B
Fri 07:28:23 PM -37.7050 144.5930 293° West 299 344 10,400 1,952 Climbing FlightAware ADS-B
Fri 07:29:01 PM -37.6492 144.5548 293° West 325 374 11,500 1,050 Climbing Aus ATC (RADAR)
Fri 07:29:03 PM -37.6490 144.5550 293° West 346 398 11,100 2,615 Descending FlightAware ADS-B
Fri 07:29:40 PM -37.5915 144.5158 293° West 344 396 13,200 2,667 Climbing Aus ATC (RADAR)
Fri 07:29:48 PM -37.5820 144.5100 293° West 347 399 13,100 1,395 Descending FlightAware ADS-B
Fri 07:30:23 PM -37.5330 144.4760 331° Northwest 367 422 14,200 2,027 Climbing FlightAware ADS-B
Fri 07:31:02 PM -37.4730 144.4350 332° Northwest 370 426 15,600 2,023 Climbing FlightAware ADS-B
Fri 07:31:49 PM -37.4010 144.3850 331° Northwest 388 447 17,100 2,308 Climbing FlightAware ADS-B
Fri 07:32:20 PM -37.3466 144.3481 331° Northwest 386 444 18,600 2,000 Climbing Aus ATC (RADAR)
Fri 07:32:46 PM -37.3120 144.3240 331° Northwest 398 458 19,000 2,000 Climbing FlightAware ADS-B
Fri 07:33:20 PM -37.2490 144.2817 331° Northwest 397 457 20,600 1,953 Climbing Aus ATC (RADAR)
Fri 07:33:29 PM -37.2380 144.2740 331° Northwest 406 467 20,400 1,950 Descending FlightAware ADS-B
Fri 07:34:00 PM -37.1828 144.2370 331° Northwest 401 461 21,900 1,886 Climbing Aus ATC (RADAR)
Fri 07:34:04 PM -37.1790 144.2340 331° Northwest 401 461 21,500 1,714 Descending FlightAware ADS-B
Fri 07:34:35 PM -37.1247 144.1977 331° Northwest 402 463 22,900 1,680 Climbing Aus ATC (RADAR)
Fri 07:34:54 PM -37.0950 144.1770 331° Northwest 406 467 22,900 1,680 Level FlightAware ADS-B
Fri 07:35:25 PM -37.0403 144.1406 331° Northwest 410 472 24,300 1,765 Climbing Aus ATC (RADAR)
Fri 07:35:28 PM -37.0370 144.1380 331° Northwest 407 468 23,900 706 Descending FlightAware ADS-B
Fri 07:35:59 PM -36.9870 144.1040 331° Northwest 409 471 24,700 1,342 Climbing FlightAware ADS-B
Fri 07:36:44 PM -36.9100 144.0520 332° Northwest 425 489 25,600 1,129 Climbing FlightAware ADS-B
Fri 07:37:24 PM -36.8410 144.0060 332° Northwest 425 489 26,300 1,756 Climbing FlightAware ADS-B
Fri 07:37:25 PM -36.8343 144.0017 332° Northwest 426 490 26,800 1,200 Climbing Aus ATC (RADAR)
Fri 07:38:09 PM -36.7630 143.9440 328° Northwest 429 494 27,200 786 Climbing FlightAware ADS-B
Fri 07:38:49 PM -36.6990 143.8810 322° Northwest 435 501 27,900 1,200 Climbing FlightAware ADS-B
Fri 07:39:34 PM -36.6270 143.8100 322° Northwest 435 501 28,900 1,319 Climbing FlightAware ADS-B
Fri 07:40:20 PM -36.5504 143.7346 322° Northwest 444 511 29,900 720 Climbing Aus ATC (RADAR)
Fri 07:40:24 PM -36.5450 143.7300 322° Northwest 453 521 29,500 1,200 Descending FlightAware ADS-B
Fri 07:40:55 PM -36.4925 143.6780 322° Northwest 449 517 30,600 1,467 Climbing Aus ATC (RADAR)
Fri 07:41:09 PM -36.4720 143.6590 322° Northwest 447 514 30,600 1,333 Level FlightAware ADS-B
Fri 07:41:49 PM -36.4070 143.5950 322° Northwest 432 497 31,800 988 Climbing FlightAware ADS-B
Fri 07:42:34 PM -36.3350 143.5250 322° Northwest 431 496 32,000 424 Climbing FlightAware ADS-B
Fri 07:43:14 PM -36.2675 143.4610 322° Northwest 439 505 32,400  Climbing Aus ATC (RADAR)
Fri 07:43:14 PM -36.2700 143.4630 322° Northwest 437 503 32,000 -533 Descending FlightAware ADS-B
Fri 07:43:59 PM -36.2000 143.3950 322° Northwest 438 504 32,000 296 Level FlightAware ADS-B
Fri 07:44:35 PM -36.1386 143.3356 322° Northwest 441 507 32,400  Climbing Aus ATC (RADAR)
Fri 07:44:39 PM -36.1350 143.3320 322° Northwest 445 512 32,000 136 Descending FlightAware ADS-B
Fri 07:45:19 PM -36.0656 143.2656 322° Northwest 441 507 32,500  Climbing Aus ATC (RADAR)
Fri 07:45:54 PM -36.0120 143.2130 322° Northwest 444 511 32,000 -92 Descending FlightAware ADS-B
Fri 07:46:24 PM -35.9599 143.1647 322° Northwest 441 507 32,400 154 Climbing Aus ATC (RADAR)
Fri 07:46:33 PM -35.9480 143.1530 322° Northwest 436 502 32,100 -480 Descending FlightAware ADS-B
Fri 07:47:14 PM -35.8860 143.0930 322° Northwest 435 501 32,000 -75 Descending FlightAware ADS-B
Fri 07:47:53 PM -35.8180 143.0290 322° Northwest 441 507 32,000 600 Level FlightAware ADS-B
Fri 07:47:54 PM -35.8146 143.0266 322° Northwest 438 504 32,400  Climbing Aus ATC (RADAR)
Fri 07:48:33 PM -35.7520 142.9660 322° Northwest 441 507 32,000  Descending FlightAware ADS-B
Fri 07:48:39 PM -35.7421 142.9574 322° Northwest 438 504 32,400 774 Climbing Aus ATC (RADAR)
Fri 07:49:04 PM -35.7023 142.9185 322° Northwest 438 504 32,400 -615 Level Aus ATC (RADAR)
Fri 07:49:18 PM -35.6800 142.8970 322° Northwest 442 509 32,000 -407 Descending FlightAware ADS-B
Fri 07:50:03 PM -35.6080 142.8290 322° Northwest 441 507 32,000 250 Level FlightAware ADS-B
Fri 07:50:54 PM -35.5236 142.7504 322° Northwest 440 506 32,400  Climbing Aus ATC (RADAR)
Fri 07:50:58 PM -35.5200 142.7450 322° Northwest 441 507 32,000 -533 Descending FlightAware ADS-B
Fri 07:51:39 PM -35.4540 142.6840 323° Northwest 435 501 32,000  Level FlightAware ADS-B
Fri 07:52:24 PM -35.3840 142.6180 322° Northwest 435 501 32,000  Level FlightAware ADS-B
Fri 07:53:04 PM -35.3190 142.5560 322° Northwest 442 509 32,000  Level FlightAware ADS-B
Fri 07:53:44 PM -35.2580 142.5000 322° Northwest 442 509 32,000 667 Level FlightAware ADS-B
Fri 07:53:49 PM -35.2405 142.4836 322° Northwest 440 506 32,500 750 Climbing Aus ATC (RADAR)
Fri 07:54:24 PM -35.1838 142.4302 322° Northwest 442 509 32,500 -750 Level Aus ATC (RADAR)
Fri 07:54:29 PM -35.1790 142.4250 322° Northwest 444 511 32,000 -667 Descending FlightAware ADS-B
Fri 07:55:09 PM -35.1120 142.3630 322° Northwest 444 511 32,000 667 Level FlightAware ADS-B
Fri 07:55:14 PM -35.1021 142.3544 322° Northwest 442 509 32,500 750 Climbing Aus ATC (RADAR)
Fri 07:55:49 PM -35.0446 142.3015 322° Northwest 443 510 32,500 -857 Level Aus ATC (RADAR)
Fri 07:55:49 PM -35.0460 142.3020 322° Northwest 445 512 32,000 -682 Descending FlightAware ADS-B
Fri 07:56:33 PM -34.9750 142.2350 322° Northwest 443 510 32,000 667 Level FlightAware ADS-B
Fri 07:56:34 PM -34.9715 142.2332 322° Northwest 441 507 32,500  Climbing Aus ATC (RADAR)
Fri 07:57:15 PM -34.9080 142.1740 323° Northwest 442 509 32,000 -349 Descending FlightAware ADS-B
Fri 07:58:00 PM -34.8320 142.1040 323° Northwest 441 507 32,000  Level FlightAware ADS-B
Fri 07:58:39 PM -34.7700 142.0460 322° Northwest 442 509 32,000 357 Level FlightAware ADS-B
Fri 07:59:24 PM -34.6948 141.9776 322° Northwest 440 506 32,500  Climbing Aus ATC (RADAR)
Fri 07:59:24 PM -34.6950 141.9780 322° Northwest 443 510 32,000  Descending FlightAware ADS-B
Fri 07:59:54 PM -34.6457 141.9326 322° Northwest 442 509 32,500  Climbing Aus ATC (RADAR)
Fri 08:00:04 PM -34.6290 141.9170 322° Northwest 444 511 32,000 -462 Descending FlightAware ADS-B
Fri 08:00:59 PM -34.5400 141.8350 323° Northwest 443 510 32,000 316 Level FlightAware ADS-B
Fri 08:01:39 PM -34.4740 141.7751 323° Northwest 442 509 32,500  Climbing Aus ATC (RADAR)
Fri 08:01:46 PM -34.4710 141.7710 323° Northwest 443 510 32,000  Descending FlightAware ADS-B
Fri 08:02:19 PM -34.4089 141.7153 323° Northwest 440 506 32,500  Climbing Aus ATC (RADAR)
Fri 08:02:42 PM -34.3900 141.6970 323° Northwest 442 509 32,000 -500 Descending FlightAware ADS-B
Fri 08:03:19 PM -34.3390 141.6490 322° Northwest 442 509 32,000 366 Level FlightAware ADS-B
Fri 08:04:04 PM -34.2382 141.5605 322° Northwest 437 503 32,500  Climbing Aus ATC (RADAR)
Fri 08:04:21 PM -34.2540 141.5680 322° Northwest 442 509 32,000 -566 Descending FlightAware ADS-B
Fri 08:04:57 PM -34.2050 141.5220 322° Northwest 442 509 32,000 353 Level FlightAware ADS-B
Fri 08:05:29 PM -34.1018 141.4374 322° Northwest 431 496 32,400  Climbing Aus ATC (RADAR)
Fri 08:05:34 PM -34.1540 141.4740 322° Northwest 442 509 32,000 -421 Descending FlightAware ADS-B
Fri 08:06:26 PM -34.0110 141.3550 325° Northwest 427 491 32,000  Level FlightAware ADS-B
Fri 08:07:03 PM -33.9620 141.3090 322° Northwest 427 491 32,000  Level FlightAware ADS-B
Fri 08:07:49 PM -33.8810 141.2380 324° Northwest 428 493 32,000 375 Level FlightAware ADS-B
Fri 08:08:23 PM -33.8210 141.1847 324° Northwest 429 494 32,500  Climbing Aus ATC (RADAR)
Fri 08:08:27 PM -33.8220 141.1840 324° Northwest 429 494 32,000  Descending FlightAware ADS-B
Fri 08:08:58 PM -33.7639 141.1334 324° Northwest 433 498 32,500 316 Climbing Aus ATC (RADAR)
Fri 08:09:06 PM -33.7510 141.1210 324° Northwest 32,000 -133 Descending FlightAware ADS-B
Fri 08:09:43 PM -33.6906 141.0684 324° Northwest 436 502 32,400 417 Climbing Aus ATC (RADAR)
Fri 08:10:18 PM -33.6341 141.0180 323° Northwest 435 501 32,500  Climbing Aus ATC (RADAR)
Fri 08:10:53 PM -33.5777 140.9677 323° Northwest 435 501 32,400 -92 Descending Aus ATC (RADAR)
Fri 08:11:23 PM -33.5291 140.9245 323° Northwest 435 501 32,400  Level Aus ATC (RADAR)
Fri 08:11:58 PM -33.4718 140.8737 324° Northwest 438 504 32,400  Level Aus ATC (RADAR)
Fri 08:12:33 PM -33.4154 140.8240 324° Northwest 435 501 32,400  Level Aus ATC (RADAR)
Fri 08:13:13 PM -33.3498 140.7660 324° Northwest 441 507 32,400 -500 Level Aus ATC (RADAR)
Fri 08:13:21 PM -33.3420 140.7590 324° Northwest 438 504 32,000 -500 Descending FlightAware ADS-B
Fri 08:14:01 PM -33.2710 140.6960 323° Northwest 440 506 32,000  Level FlightAware ADS-B
Fri 08:14:46 PM -33.1960 140.6310 324° Northwest 439 505 32,000 345 Level FlightAware ADS-B
Fri 08:15:28 PM -33.1290 140.5725 324° Northwest 439 505 32,500 133 Climbing Aus ATC (RADAR)
Fri 08:15:31 PM -33.1250 140.5680 324° Northwest 438 504 32,100  Descending FlightAware ADS-B
Fri 08:16:04 PM -33.0717 140.5217 324° Northwest 441 507 32,500 -150 Climbing Aus ATC (RADAR)
Fri 08:16:11 PM -33.0600 140.5120 324° Northwest 437 503 32,000 -154 Descending FlightAware ADS-B
Fri 08:16:43 PM -33.0080 140.4666 324° Northwest 429 494 32,400  Climbing Aus ATC (RADAR)
Fri 08:16:51 PM -32.9930 140.4530 324° Northwest 435 501 32,000 -500 Descending FlightAware ADS-B
Fri 08:17:31 PM -32.9280 140.3960 324° Northwest 427 491 32,000  Level FlightAware ADS-B
Fri 08:18:16 PM -32.8580 140.3350 324° Northwest 426 490 32,000 511 Level FlightAware ADS-B
Fri 08:18:18 PM -32.8531 140.3311 324° Northwest 437 503 32,400 750 Climbing Aus ATC (RADAR)
Fri 08:18:48 PM -32.8051 140.2900 324° Northwest 430 495 32,400 -453 Level Aus ATC (RADAR)
Fri 08:19:11 PM -32.7660 140.2560 324° Northwest 424 488 32,000  Descending FlightAware ADS-B
Fri 08:19:43 PM -32.7171 140.2136 324° Northwest 428 493 32,400  Climbing Aus ATC (RADAR)
Fri 08:19:51 PM -32.7040 140.2010 324° Northwest 422 486 32,000  Descending FlightAware ADS-B
Fri 08:20:28 PM -32.6449 140.1504 324° Northwest 432 497 32,400  Climbing Aus ATC (RADAR)
Fri 08:20:32 PM -32.6380 140.1450 324° Northwest 419 482 32,000  Descending FlightAware ADS-B
Fri 08:21:03 PM -32.5892 140.1030 324° Northwest 427 491 32,400  Climbing Aus ATC (RADAR)
Fri 08:21:16 PM -32.5700 140.0850 324° Northwest 418 481 32,000 -407 Descending FlightAware ADS-B
Fri 08:22:02 PM -32.4950 140.0210 324° Northwest 423 487 32,000  Level FlightAware ADS-B
Fri 08:22:42 PM -32.4300 139.9650 324° Northwest 417 480 32,000 732 Level FlightAware ADS-B
Fri 08:22:43 PM -32.4304 139.9659 324° Northwest 423 487 32,500  Climbing Aus ATC (RADAR)
Fri 08:23:21 PM -32.3690 139.9130 324° Northwest 423 487 32,000  Descending FlightAware ADS-B
Fri 08:23:53 PM -32.3196 139.8703 324° Northwest 422 486 32,500  Climbing Aus ATC (RADAR)
Fri 08:24:21 PM -32.2730 139.8310 324° Northwest 421 484 32,000 -441 Descending FlightAware ADS-B
Fri 08:25:01 PM -32.2130 139.7800 324° Northwest 421 484 32,000 326 Level FlightAware ADS-B
Fri 08:25:53 PM -32.1299 139.7092 324° Northwest 421 484 32,500  Climbing Aus ATC (RADAR)
Fri 08:26:02 PM -32.1260 139.7050 324° Northwest 421 484 32,000  Descending FlightAware ADS-B
Fri 08:26:43 PM -32.0516 139.6419 324° Northwest 420 483 32,500  Climbing Aus ATC (RADAR)
Fri 08:26:48 PM -32.0530 139.6430 324° Northwest 418 481 32,000 -566 Descending FlightAware ADS-B
Fri 08:27:36 PM -31.9900 139.5890 324° Northwest 418 481 32,000 600 Level FlightAware ADS-B
Fri 08:27:38 PM -31.9658 139.5708 324° Northwest 415 478 32,500  Climbing Aus ATC (RADAR)
Fri 08:28:12 PM -31.9420 139.5480 324° Northwest 418 481 32,000  Descending FlightAware ADS-B
Fri 08:28:53 PM -31.8477 139.4689 324° Northwest 420 483 32,500  Climbing Aus ATC (RADAR)
Fri 08:29:00 PM -31.8780 139.4930 324° Northwest 418 481 32,000  Descending FlightAware ADS-B
Fri 08:30:12 PM -31.7223 139.3672 324° Northwest 411 473 32,500 280 Climbing Aus ATC (RADAR)
Fri 08:30:47 PM -31.6669 139.3178 323° Northwest 421 484 32,500  Level Aus ATC (RADAR)
Fri 08:31:22 PM -31.6115 139.2710 324° Northwest 423 487 32,500  Level Aus ATC (RADAR)
Fri 08:32:37 PM -31.4935 139.1696 324° Northwest 422 486 32,500  Level Aus ATC (RADAR)
Fri 08:33:22 PM -31.4227 139.1117 325° Northwest 418 481 32,500  Level Aus ATC (RADAR)
Fri 08:34:03 PM -31.3609 139.0646 327° Northwest 408 470 32,500  Level Aus ATC (RADAR)
Fri 08:34:37 PM -31.3068 139.0195 324° Northwest 407 468 32,500  Level Aus ATC (RADAR)
Fri 08:35:22 PM -31.2380 138.9573 322° Northwest 412 474 32,500  Level Aus ATC (RADAR)
Fri 08:36:22 PM -31.1469 138.8820 325° Northwest 405 466 32,500  Level Aus ATC (RADAR)
Fri 08:37:12 PM -31.0709 138.8211 326° Northwest 401 461 32,500  Level Aus ATC (RADAR)
Fri 08:37:47 PM -31.0185 138.7800 326° Northwest 396 456 32,500  Level Aus ATC (RADAR)
Fri 08:38:42 PM -30.9351 138.7058 323° Northwest 408 470 32,500  Level Aus ATC (RADAR)
Fri 08:39:42 PM -30.8442 138.6345 326° Northwest 402 463 32,500  Level Aus ATC (RADAR)
Fri 08:40:12 PM -30.7984 138.5997 327° Northwest 400 460 32,500 -11 Level Aus ATC (RADAR)
Fri 08:42:29 PM -30.5578 138.4233 328° Northwest 34,000 -11 Climbing Aus ATC (Calculated)
Fri 08:44:00 PM -30.4201 138.3241 328° Northwest  Level Estimated
Fri 08:45:00 PM -30.3292 138.2588 328° Northwest  Level Estimated
Fri 08:46:00 PM -30.2383 138.1937 328° Northwest  Level Estimated
Fri 08:47:00 PM -30.1473 138.1286 328° Northwest  Level Estimated
Fri 08:47:24 PM -30.1212 138.1057 328° Northwest 34,000  Level Aus ATC (Calculated)
Fri 08:49:00 PM -29.9755 138.0021 328° Northwest  Level Estimated
Fri 08:50:00 PM -29.8845 137.9375 328° Northwest  Level Estimated
Fri 08:51:00 PM -29.7934 137.8730 328° Northwest  Level Estimated
Fri 08:52:00 PM -29.7022 137.8086 328° Northwest  Level Estimated
Fri 08:52:23 PM -29.7066 137.8073 328° Northwest 34,000  Level Aus ATC (Calculated)
Fri 08:52:23 PM -29.7066 137.8072 328° Northwest 34,000 -57 Level Aus ATC (Calculated)
Fri 08:54:00 PM -29.5591 137.7035 329° Northwest  Level Estimated
Fri 08:55:00 PM -29.4679 137.6394 329° Northwest  Level Estimated
Fri 08:56:00 PM -29.3766 137.5755 329° Northwest  Level Estimated
Fri 08:57:00 PM -29.2854 137.5116 329° Northwest  Level Estimated
Fri 08:57:23 PM -29.2430 137.4770 329° Northwest 34,000  Level Aus ATC (Calculated)
Fri 08:59:00 PM -29.0953 137.3743 329° Northwest  Level Estimated
Fri 08:59:29 PM -29.0515 137.3416 329° Northwest 34,000  Level Aus ATC (Calculated)
Fri 09:00:29 PM -28.9477 137.2685 329° Northwest 34,000 -72 Level Aus ATC (Calculated)
Fri 09:01:38 PM -28.8569 137.2047 329° Northwest 34,000 -75 Level Aus ATC (Calculated)
Fri 09:02:00 PM -28.8089 137.1727 329° Northwest  Level Estimated
Fri 09:02:22 PM -28.7774 137.1489 329° Northwest 34,000  Level Aus ATC (Calculated)
Fri 09:03:32 PM -28.7078 137.1002 329° Northwest 34,000 -80 Level Aus ATC (Calculated)
Fri 09:04:00 PM -28.6278 137.0462 329° Northwest  Level Estimated
Fri 09:05:00 PM -28.5735 137.0081 329° Northwest  Level Estimated
Fri 09:05:38 PM -28.5403 136.9832 329° Northwest 34,000  Level Aus ATC (Calculated)
Fri 09:07:00 PM -28.4150 136.8977 329° Northwest  Level Estimated
Fri 09:08:00 PM -28.3233 136.8352 329° Northwest  Level Estimated
Fri 09:08:27 PM -28.3003 136.8163 329° Northwest 34,000  Level Aus ATC (Calculated)
Fri 09:09:00 PM -28.2316 136.7729 329° Northwest  Level Estimated
Fri 09:09:37 PM -28.1723 136.7281 329° Northwest 34,000  Level Aus ATC (Calculated)
Fri 09:10:00 PM -28.1580 136.7198 329° Northwest  Level Estimated
Fri 09:11:00 PM -28.0452 136.6423 329° Northwest  Level Estimated
Fri 09:12:00 PM -27.9534 136.5803 329° Northwest  Level Estimated
Fri 09:13:00 PM -27.8615 136.5185 329° Northwest  Level Estimated
Fri 09:14:00 PM -27.7696 136.4568 329° Northwest  Level Estimated
Fri 09:14:31 PM -27.7406 136.4354 329° Northwest 34,000  Level Aus ATC (Calculated)
Fri 09:15:31 PM -27.6446 136.3707 329° Northwest 34,000 -157 Level Aus ATC (Calculated)
Fri 09:17:00 PM -27.5081 136.2796 329° Northwest  Level Estimated
Fri 09:18:00 PM -27.4160 136.2183 329° Northwest  Level Estimated
Fri 09:19:00 PM -27.3240 136.1571 329° Northwest  Level Estimated
Fri 09:20:00 PM -27.2319 136.0960 329° Northwest  Level Estimated
Fri 09:20:31 PM -27.1640 136.0487 329° Northwest 34,000  Level Aus ATC (Calculated)
Fri 09:21:00 PM -27.1397 136.0350 329° Northwest  Level Estimated
Fri 09:22:00 PM -27.0273 135.9585 330° Northwest  Level Estimated
Fri 09:23:00 PM -26.9351 135.8978 330° Northwest  Level Estimated
Fri 09:24:00 PM -26.8428 135.8371 330° Northwest  Level Estimated
Fri 09:25:00 PM -26.7506 135.7766 330° Northwest  Level Estimated
Fri 09:25:30 PM -26.7309 135.7613 330° Northwest 34,000  Level Aus ATC (Calculated)
Fri 09:26:45 PM -26.6288 135.6939 140° Southeast 26,500 -1,132 Descending Aus ATC (Calculated)
Fri 09:27:16 PM -26.6320 135.6970 330° Northwest 380 437 32,000 4,286 Climbing FlightAware ADS-B
Fri 09:28:00 PM -26.5133 135.6187 330° Northwest  Level Estimated
Fri 09:28:02 PM -26.5640 135.6510 329° Northwest 380 437 32,000  Level FlightAware ADS-B
Fri 09:28:47 PM -26.4940 135.6060 330° Northwest 381 438 32,000  Level FlightAware ADS-B
Fri 09:29:28 PM -26.4310 135.5640 329° Northwest 383 441 32,000  Level FlightAware ADS-B
Fri 09:29:34 PM -26.3590 135.5166 328° Northwest 26,500  Descending Aus ATC (Calculated)
Fri 09:30:06 PM -26.3051 135.4813 328° Northwest 26,500 1,075 Level Aus ATC (Calculated)
Fri 09:31:40 PM -26.1431 135.3754 326° Northwest 26,500 1,200 Level Aus ATC (Calculated)
Fri 09:33:00 PM -26.0201 135.2952 330° Northwest  Level FlightAware Approximate
Fri 09:33:00 PM -26.0350 135.3049 320° Northwest 26,500  Level Aus ATC (Calculated)
Fri 09:33:14 PM -26.0350 135.3049 320° Northwest 26,500 3,267 Level Aus ATC (Calculated)
Fri 09:34:23 PM -25.9270 135.2346 163° South 26,500 3,793 Level Aus ATC (Calculated)
Fri 09:34:41 PM -25.9780 135.2520 330° Northwest 377 434 32,000 5,410 Climbing FlightAware ADS-B
Fri 09:35:24 PM -25.9010 135.1910 325° Northwest 379 436 32,000  Level FlightAware ADS-B
Fri 09:36:09 PM -25.8380 135.1410 324° Northwest 379 436 32,000  Level FlightAware ADS-B
Fri 09:36:14 PM -25.7648 135.1294 244° Southwest 26,500  Descending Aus ATC (Calculated)
Fri 09:36:53 PM -25.7800 135.0950 324° Northwest 381 438 32,000 3,929 Climbing FlightAware ADS-B
Fri 09:37:38 PM -25.7110 135.0400 324° Northwest 381 438 32,000  Level FlightAware ADS-B
Fri 09:38:09 PM -25.6025 135.0245 201° Southwest 26,500  Descending Aus ATC (Calculated)
Fri 09:38:13 PM -25.6610 135.0000 324° Northwest 380 437 32,000 6,600 Climbing FlightAware ADS-B
Fri 09:38:59 PM -25.5940 134.9470 324° Northwest 380 437 32,000  Level FlightAware ADS-B
Fri 09:39:39 PM -25.5360 134.9020 325° Northwest 380 437 32,000  Level FlightAware ADS-B
Fri 09:40:20 PM -25.4790 134.8560 324° Northwest 380 437 32,000  Level FlightAware ADS-B
Fri 09:41:14 PM -25.4000 134.7940 325° Northwest 382 440 32,000  Level FlightAware ADS-B
Fri 09:42:00 PM -25.3350 134.7430 325° Northwest 382 440 32,000  Level FlightAware ADS-B
Fri 09:42:41 PM -25.2780 134.6980 324° Northwest 384 442 32,000  Level FlightAware ADS-B
Fri 09:43:09 PM -25.1153 134.7113 214° Southwest 26,500  Descending Aus ATC (Calculated)
Fri 09:43:28 PM -25.2070 134.6420 324° Northwest 386 444 32,000 5,593 Climbing FlightAware ADS-B
Fri 09:44:08 PM -25.1480 134.5960 325° Northwest 387 445 32,000 -150 Level FlightAware ADS-B
Fri 09:44:48 PM -25.0910 134.5510 324° Northwest 381 438 31,800 -519 Descending FlightAware ADS-B
Fri 09:45:29 PM -25.0330 134.5060 325° Northwest 364 419 31,300 -889 Descending FlightAware ADS-B
Fri 09:46:09 PM -24.9780 134.4630 325° Northwest 358 412 30,600 -1,024 Descending FlightAware ADS-B
Fri 09:46:14 PM -24.8803 134.5615 252° West 2,300 -1,000 Descending Aus ATC (Calculated)
Fri 09:46:51 PM -24.9220 134.4190 325° Northwest 357 411 29,900 20,100 Climbing FlightAware ADS-B
Fri 09:47:34 PM -24.8640 134.3730 324° Northwest 361 415 29,100 -1,873 Descending FlightAware ADS-B
Fri 09:47:38 PM -24.7355 134.4697 284° West 2,300 -2,123 Descending Aus ATC (Calculated)
Fri 09:49:44 PM -24.6830 134.2320 324° Northwest 358 412 24,500 7,509 Climbing FlightAware ADS-B
Fri 09:50:02 PM -24.5181 134.3325 229° Southwest 2,300 -1,902 Descending Aus ATC (Calculated)
Fri 09:50:25 PM -24.6300 134.1910 324° Northwest 349 402 23,200 18,188 Climbing FlightAware ADS-B
Fri 09:50:38 PM -24.5181 134.3325 252° West 2,300 -2,195 Descending Aus ATC (Calculated)
Fri 09:51:06 PM -24.5740 134.1480 324° Northwest 342 394 21,700 14,595 Climbing FlightAware ADS-B
Fri 09:51:52 PM -24.5170 134.1040 325° Northwest 330 380 20,300 -1,765 Descending FlightAware ADS-B
Fri 09:52:31 PM -24.4700 134.0670 324° Northwest 319 367 19,200 -1,643 Descending FlightAware ADS-B
Fri 09:53:13 PM -24.3007 134.1956 233° Southwest 2,300 -1,600 Descending Aus ATC (Calculated)
Fri 09:53:16 PM -24.4180 134.0270 325° Northwest 311 358 18,000 21,512 Climbing FlightAware ADS-B
Fri 09:53:54 PM -24.3720 133.9920 325° Northwest 302 348 17,000 -1,571 Descending FlightAware ADS-B
Fri 09:54:02 PM -24.2281 134.1501 243° Southwest 2,300 -1,565 Descending Aus ATC (Calculated)
Fri 09:54:40 PM -24.3210 133.9520 325° Northwest 291 335 15,800 6,932 Climbing FlightAware ADS-B
Fri 09:55:45 PM -24.2460 133.8940 325° Northwest 319 367 14,200 -1,585 Descending FlightAware ADS-B
Fri 09:56:08 PM -24.0105 134.0139 218° Southwest 2,300 -1,756 Descending Aus ATC (Calculated)
Fri 09:56:26 PM -24.1940 133.8540 325° Northwest 325 374 13,000 8,545 Climbing FlightAware ADS-B
Fri 09:57:14 PM -24.1350 133.8080 325° Northwest 333 383 11,700 -1,793 Descending FlightAware ADS-B
Fri 09:57:53 PM -24.0860 133.7710 325° Northwest 339 390 10,400 -1,781 Descending FlightAware ADS-B
Fri 09:58:18 PM -24.0530 133.7450 324° Northwest 327 376 9,800 -1,143 Descending FlightAware ADS-B
Fri 09:58:35 PM -24.0330 133.7310 327° Northwest 316 364 9,600 -652 Descending FlightAware ADS-B
Fri 09:59:04 PM -23.9980 133.7040 325° Northwest 296 341 9,300 -1,053 Descending FlightAware ADS-B
Fri 09:59:07 PM -23.7927 133.8782 226° Southwest 1,800 -1,500 Descending Aus ATC (Calculated)
Fri 09:59:23 PM -23.8005 133.8896 228° Southwest 1,800 16,320 Level Aus ATC (Calculated)
Fri 09:59:23 PM -23.8005 133.8896 228° Southwest 1,800 45,333 Level Aus ATC (Calculated)
Fri 09:59:32 PM -23.9690 133.6810 325° Northwest 290 334 8,600 11,273 Climbing FlightAware ADS-B
Fri 09:59:56 PM -23.9410 133.6600 325° Northwest 291 335 8,000 -722 Descending FlightAware ADS-B
Fri 10:02:00 PM -23.8265 133.8666 59° Northeast  Level Estimated
Fri 10:03:00 PM -23.8067 133.9022 59° Northeast  Level Estimated
Fri 10:04:00 PM -23.8067 133.9022 31° Northeast  Level Estimated
Fri 10:04:23 PM -23.6940 133.6930 31° Northeast 194 223 5,100  Level FlightAware ADS-B
Fri 10:04:47 PM -23.7040 133.7130 119° Southeast 177 204 5,100 -340 Level FlightAware ADS-B
Fri 10:05:16 PM -23.7150 133.7340 120° Southeast 163 188 4,800 -842 Descending FlightAware ADS-B
Fri 10:05:44 PM -23.7260 133.7540 121° Southeast 161 185 4,300 -947 Descending FlightAware ADS-B
Fri 10:06:13 PM -23.7370 133.7740 121° Southeast 153 176 3,900 -842 Descending FlightAware ADS-B
Fri 10:06:41 PM -23.7460 133.7910 120° Southeast 145 167 3,500 -750 Descending FlightAware ADS-B
Fri 10:07:09 PM -23.7550 133.8080 120° Southeast 133 153 3,200 -764 Descending FlightAware ADS-B
Fri 10:07:36 PM -23.7640 133.8250 120° Southeast 135 155 2,800 -737 Descending FlightAware ADS-B
Fri 10:08:06 PM -23.7730 133.8420 120° Southeast 131 151 2,500 -692 Descending FlightAware ADS-B
Fri 10:08:28 PM -23.7800 133.8550 120° Southeast 133 153 2,200 -764 Descending FlightAware ADS-B
Fri 10:09:01 PM -23.7910 133.8740 122° Southeast 134 154 1,800 -737 Descending FlightAware ADS-B
Fri 10:09:25 PM -23.7980 133.8880 119° Southeast 131 151 1,500 -750 Descending FlightAware ADS-B
Fri 10:09:56 PM -23.8070 133.9040 119° Southeast 82 94 -2,903 Descending FlightAware ADS-B
Fri 10:10:08 PM -23.8080 133.9060 119° Southeast 33 38  Level FlightAware ADS-B

Login

Don't have an account? Register now (free) for customized features, flight alerts, and more!